createdAt,value
2022-12-02T00:00:25.909Z,3.52
2022-12-02T00:02:56.199Z,3.53
2022-12-02T00:05:30.723Z,3.30
2022-12-02T00:08:00.695Z,3.46
2022-12-02T00:10:33.909Z,3.65
2022-12-02T00:13:09.190Z,3.56
2022-12-02T00:15:43.073Z,3.41
2022-12-02T00:18:12.840Z,3.30
2022-12-02T00:20:40.735Z,3.33
2022-12-02T00:23:09.109Z,3.41
2022-12-02T00:25:38.049Z,3.59
2022-12-02T00:28:06.127Z,3.73
2022-12-02T00:30:33.738Z,3.37
2022-12-02T00:33:01.396Z,3.27
2022-12-02T00:35:28.938Z,3.27
2022-12-02T00:37:56.563Z,3.43
2022-12-02T00:40:24.325Z,3.23
2022-12-02T00:42:53.644Z,3.10
2022-12-02T00:45:53.319Z,3.11
2022-12-02T00:48:20.868Z,3.11
2022-12-02T00:50:48.378Z,3.11
2022-12-02T00:53:15.929Z,3.02
2022-12-02T00:55:43.462Z,3.09
2022-12-02T00:58:12.356Z,3.09
2022-12-02T01:00:39.957Z,3.30
2022-12-02T01:03:07.529Z,3.29
2022-12-02T01:05:35.050Z,3.38
2022-12-02T01:08:02.669Z,3.49
2022-12-02T01:10:30.326Z,3.49
2022-12-02T01:12:57.896Z,3.25
2022-12-02T01:15:26.911Z,3.26
2022-12-02T01:17:54.633Z,3.69
2022-12-02T01:20:22.290Z,3.25
2022-12-02T01:22:49.849Z,3.44
2022-12-02T01:25:17.557Z,3.38
2022-12-02T01:27:45.162Z,3.29
2022-12-02T01:30:13.950Z,3.34
2022-12-02T01:32:42.851Z,3.95
2022-12-02T01:35:10.639Z,3.40
2022-12-02T01:37:38.220Z,3.72
2022-12-02T01:40:07.745Z,3.67
2022-12-02T01:42:35.516Z,3.62
2022-12-02T01:45:03.156Z,3.64
2022-12-02T01:47:30.814Z,4.06
2022-12-02T01:49:59.871Z,3.72
2022-12-02T01:52:27.814Z,3.50
2022-12-02T01:54:55.371Z,3.43
2022-12-02T01:57:29.197Z,3.44
2022-12-02T01:59:57.276Z,3.91
2022-12-02T02:02:29.247Z,3.84
2022-12-02T02:05:01.544Z,3.54
2022-12-02T02:07:30.205Z,3.62
2022-12-02T02:09:58.557Z,3.50
2022-12-02T02:12:27.549Z,3.28
2022-12-02T02:14:56.397Z,3.48
2022-12-02T02:17:24.110Z,3.65
2022-12-02T02:19:52.092Z,3.70
2022-12-02T02:22:25.062Z,3.43
2022-12-02T02:24:54.071Z,3.63
2022-12-02T02:27:21.623Z,3.30
2022-12-02T02:29:49.786Z,3.14
2022-12-02T02:32:17.454Z,2.95
2022-12-02T02:34:45.165Z,3.19
2022-12-02T02:37:12.803Z,3.50
2022-12-02T02:39:40.374Z,3.55
2022-12-02T02:42:09.356Z,3.34
2022-12-02T02:44:37.040Z,3.53
2022-12-02T02:47:04.627Z,3.84
2022-12-02T02:49:32.170Z,3.84
2022-12-02T02:51:59.713Z,3.46
2022-12-02T02:54:27.268Z,3.13
2022-12-02T02:56:54.873Z,2.83
2022-12-02T02:59:23.750Z,3.07
2022-12-02T03:01:52.275Z,3.23
2022-12-02T03:04:21.748Z,3.16
2022-12-02T03:06:51.424Z,3.07
2022-12-02T03:09:21.747Z,3.14
2022-12-02T03:11:51.407Z,3.40
2022-12-02T03:14:21.016Z,3.43
2022-12-02T03:16:51.461Z,3.87
2022-12-02T03:19:19.945Z,3.50
2022-12-02T03:21:48.002Z,3.39
2022-12-02T03:24:15.952Z,3.26
2022-12-02T03:26:44.097Z,3.02
2022-12-02T03:29:15.298Z,3.05
2022-12-02T03:31:44.355Z,3.41
2022-12-02T03:34:13.767Z,3.36
2022-12-02T03:36:42.165Z,3.26
2022-12-02T03:39:10.945Z,3.26
2022-12-02T03:41:39.135Z,3.04
2022-12-02T03:44:07.391Z,3.36
2022-12-02T03:46:35.081Z,3.93
2022-12-02T03:49:03.655Z,3.78
2022-12-02T03:51:33.350Z,4.07
2022-12-02T03:54:01.822Z,3.48
2022-12-02T03:56:29.491Z,3.08
2022-12-02T03:58:57.014Z,3.35
2022-12-02T04:01:24.738Z,3.12
2022-12-02T04:03:52.334Z,3.08
2022-12-02T04:06:20.031Z,3.21
2022-12-02T04:08:48.928Z,3.51
2022-12-02T04:11:17.231Z,3.62
2022-12-02T04:13:44.757Z,3.64
2022-12-02T04:16:12.332Z,3.33
2022-12-02T04:18:39.917Z,3.31
2022-12-02T04:21:07.458Z,3.15
2022-12-02T04:23:35.586Z,3.12
2022-12-02T04:26:04.501Z,3.48
2022-12-02T04:28:32.044Z,3.95
2022-12-02T04:30:59.645Z,3.85
2022-12-02T04:33:27.206Z,3.78
2022-12-02T04:35:54.745Z,3.71
2022-12-02T04:38:22.297Z,3.41
2022-12-02T04:40:49.864Z,3.00
2022-12-02T04:43:18.794Z,3.43
2022-12-02T04:45:46.374Z,2.94
2022-12-02T04:48:13.888Z,3.09
2022-12-02T04:50:41.426Z,3.05
2022-12-02T04:53:08.984Z,3.57
2022-12-02T04:55:36.550Z,3.60
2022-12-02T04:58:04.070Z,3.07
2022-12-02T05:00:33.109Z,3.33
2022-12-02T05:03:00.638Z,3.54
2022-12-02T05:05:28.213Z,3.36
2022-12-02T05:07:55.818Z,3.01
2022-12-02T05:10:23.571Z,3.06
2022-12-02T05:12:51.106Z,3.07
2022-12-02T05:15:19.954Z,3.29
2022-12-02T05:17:49.050Z,3.15
2022-12-02T05:20:16.643Z,2.87
2022-12-02T05:22:44.218Z,3.12
2022-12-02T05:25:12.272Z,3.06
2022-12-02T05:27:39.838Z,3.58
2022-12-02T05:30:08.911Z,3.36
2022-12-02T05:32:36.431Z,3.39
2022-12-02T05:35:06.128Z,3.34
2022-12-02T05:37:33.658Z,3.34
2022-12-02T05:40:02.905Z,3.03
2022-12-02T05:42:30.478Z,2.88
2022-12-02T05:45:01.525Z,3.07
2022-12-02T05:47:30.715Z,2.91
2022-12-02T05:50:00.990Z,2.64
2022-12-02T05:52:30.600Z,2.93
2022-12-02T05:55:00.949Z,2.86
2022-12-02T05:57:30.339Z,2.97
2022-12-02T06:00:11.693Z,2.99
2022-12-02T06:02:41.578Z,2.64
2022-12-02T06:05:19.696Z,2.54
2022-12-02T06:07:50.915Z,2.79
2022-12-02T06:10:23.834Z,2.64
2022-12-02T06:12:53.649Z,2.91
2022-12-02T06:15:21.198Z,3.08
2022-12-02T06:17:48.792Z,2.40
2022-12-02T06:20:22.073Z,2.57
2022-12-02T06:22:51.005Z,2.60
2022-12-02T06:25:26.195Z,2.88
2022-12-02T06:27:59.399Z,2.82
2022-12-02T06:30:27.511Z,2.63
2022-12-02T06:32:57.192Z,2.38
2022-12-02T06:35:28.196Z,2.63
2022-12-02T06:37:59.796Z,2.83
2022-12-02T06:40:31.092Z,2.77
2022-12-02T06:43:00.865Z,2.56
2022-12-02T06:45:31.142Z,2.85
2022-12-02T06:48:05.196Z,2.40
2022-12-02T06:50:42.099Z,2.62
2022-12-02T06:53:32.192Z,2.56
2022-12-02T06:56:03.063Z,2.56
2022-12-02T06:58:35.137Z,2.37
2022-12-02T07:01:24.690Z,2.42
2022-12-02T07:04:25.443Z,2.32
2022-12-02T07:06:55.590Z,2.28
2022-12-02T07:09:30.890Z,2.18
2022-12-02T07:12:00.135Z,2.19
2022-12-02T07:14:44.612Z,2.57
2022-12-02T07:17:21.006Z,2.50
2022-12-02T07:19:51.476Z,2.82
2022-12-02T07:22:22.754Z,2.92
2022-12-02T07:24:55.776Z,2.80
2022-12-02T07:27:26.349Z,2.43
2022-12-02T07:29:56.282Z,2.94
2022-12-02T07:32:24.324Z,2.88
2022-12-02T07:34:52.263Z,3.00
2022-12-02T07:37:20.065Z,2.86
2022-12-02T07:39:47.593Z,2.83
2022-12-02T07:42:16.453Z,2.79
2022-12-02T07:44:44.489Z,3.07
2022-12-02T07:47:11.989Z,2.60
2022-12-02T07:49:39.544Z,2.32
2022-12-02T07:52:07.070Z,2.59
2022-12-02T07:54:34.595Z,2.77
2022-12-02T07:57:02.112Z,2.31
2022-12-02T07:59:30.964Z,2.46
2022-12-02T08:01:58.541Z,2.88
2022-12-02T08:04:26.200Z,3.08
2022-12-02T08:06:53.735Z,2.99
2022-12-02T08:09:21.260Z,2.59
2022-12-02T08:11:48.808Z,2.22
2022-12-02T08:14:16.326Z,2.62
2022-12-02T08:16:45.220Z,2.91
2022-12-02T08:19:12.963Z,2.66
2022-12-02T08:21:40.534Z,2.85
2022-12-02T08:24:08.186Z,3.00
2022-12-02T08:26:35.784Z,3.14
2022-12-02T08:29:03.315Z,2.92
2022-12-02T08:31:30.948Z,3.11
2022-12-02T08:34:05.289Z,2.74
2022-12-02T08:36:35.154Z,2.41
2022-12-02T08:39:05.459Z,2.37
2022-12-02T08:41:33.379Z,2.45
2022-12-02T08:44:01.177Z,2.42
2022-12-02T08:46:28.896Z,2.52
2022-12-02T08:48:56.615Z,2.61
2022-12-02T08:51:25.823Z,2.57
2022-12-02T08:53:54.191Z,2.61
2022-12-02T08:56:21.932Z,2.64
2022-12-02T08:58:49.528Z,2.52
2022-12-02T09:01:17.158Z,2.55
2022-12-02T09:03:44.755Z,2.62
2022-12-02T09:06:12.348Z,2.84
2022-12-02T09:08:41.242Z,2.65
2022-12-02T09:11:08.879Z,2.46
2022-12-02T09:13:36.513Z,2.74
2022-12-02T09:16:04.149Z,2.64
2022-12-02T09:18:31.727Z,2.59
2022-12-02T09:20:59.258Z,2.44
2022-12-02T09:23:28.809Z,2.35
2022-12-02T09:25:57.709Z,2.28
2022-12-02T09:28:25.279Z,2.25
2022-12-02T09:30:53.036Z,2.63
2022-12-02T09:33:20.608Z,2.77
2022-12-02T09:35:48.215Z,2.86
2022-12-02T09:38:15.820Z,2.46
2022-12-02T09:40:43.607Z,2.63
2022-12-02T09:43:12.740Z,2.78
2022-12-02T09:45:41.349Z,2.46
2022-12-02T09:48:09.640Z,2.23
2022-12-02T09:50:39.070Z,2.56
2022-12-02T09:53:08.545Z,2.41
2022-12-02T09:55:37.891Z,2.02
2022-12-02T09:58:15.424Z,2.29
2022-12-02T10:00:43.044Z,2.15
2022-12-02T10:03:18.413Z,2.45
2022-12-02T10:05:46.727Z,2.35
2022-12-02T10:08:18.571Z,2.50
2022-12-02T10:10:46.789Z,2.60
2022-12-02T10:13:17.656Z,2.61
2022-12-02T10:15:45.993Z,2.49
2022-12-02T10:18:17.648Z,2.28
2022-12-02T10:20:46.033Z,2.75
2022-12-02T10:23:16.503Z,2.50
2022-12-02T10:25:46.227Z,2.32
2022-12-02T10:28:29.907Z,2.29
2022-12-02T10:31:01.555Z,2.25
2022-12-02T10:33:31.411Z,2.38
2022-12-02T10:36:00.530Z,2.66
2022-12-02T10:38:38.777Z,2.96
2022-12-02T10:41:18.342Z,2.80
2022-12-02T10:44:03.989Z,2.63
2022-12-02T10:46:32.640Z,2.42
2022-12-02T10:49:17.687Z,2.38
2022-12-02T10:51:45.294Z,2.41
2022-12-02T10:54:23.059Z,2.55
2022-12-02T10:56:50.616Z,2.33
2022-12-02T10:59:19.610Z,2.04
2022-12-02T11:01:47.822Z,2.27
2022-12-02T11:04:16.347Z,2.34
2022-12-02T11:06:45.044Z,2.69
2022-12-02T11:09:39.469Z,2.85
2022-12-02T11:12:32.896Z,2.28
2022-12-02T11:15:02.848Z,2.26
2022-12-02T11:17:49.901Z,2.32
2022-12-02T11:20:31.566Z,2.33
2022-12-02T11:23:24.443Z,2.15
2022-12-02T11:26:09.181Z,2.18
2022-12-02T11:28:58.895Z,2.32
2022-12-02T11:31:28.629Z,2.12
2022-12-02T11:34:07.281Z,2.09
2022-12-02T11:36:36.294Z,2.11
2022-12-02T11:39:07.422Z,2.07
2022-12-02T11:42:12.152Z,2.19
2022-12-02T11:44:39.732Z,2.09
2022-12-02T11:47:25.713Z,2.13
2022-12-02T11:49:53.760Z,2.40
2022-12-02T11:52:25.559Z,2.47
2022-12-02T11:55:04.272Z,2.35
2022-12-02T11:57:42.948Z,2.45
2022-12-02T12:00:21.847Z,2.45
2022-12-02T12:03:05.643Z,2.56
2022-12-02T12:05:33.392Z,2.51
2022-12-02T12:08:03.244Z,2.69
2022-12-02T12:10:34.327Z,2.60
2022-12-02T12:13:22.148Z,2.63
2022-12-02T12:15:55.546Z,2.52
2022-12-02T12:18:42.374Z,2.54
2022-12-02T12:21:10.889Z,2.52
2022-12-02T12:23:40.539Z,2.60
2022-12-02T12:26:09.174Z,2.47
2022-12-02T12:28:38.271Z,2.50
2022-12-02T12:31:08.054Z,2.83
2022-12-02T12:33:37.082Z,2.85
2022-12-02T12:36:05.105Z,2.81
2022-12-02T12:38:32.669Z,2.59
2022-12-02T12:41:00.229Z,2.44
2022-12-02T12:43:27.759Z,2.63
2022-12-02T12:45:55.347Z,2.49
2022-12-02T12:48:22.928Z,2.41
2022-12-02T12:50:51.783Z,2.35
2022-12-02T12:53:19.311Z,2.42
2022-12-02T12:55:46.851Z,2.34
2022-12-02T12:58:14.931Z,2.16
2022-12-02T13:00:42.565Z,2.18
2022-12-02T13:03:10.226Z,2.09
2022-12-02T13:05:37.793Z,2.12
2022-12-02T13:08:09.685Z,2.31
2022-12-02T13:10:37.568Z,2.26
2022-12-02T13:13:05.126Z,2.56
2022-12-02T13:15:32.799Z,2.61
2022-12-02T13:18:00.328Z,2.62
2022-12-02T13:20:28.017Z,2.63
2022-12-02T13:22:55.557Z,2.37
2022-12-02T13:25:24.898Z,2.00
2022-12-02T13:27:52.644Z,1.90
2022-12-02T13:30:22.360Z,2.07
2022-12-02T13:32:50.451Z,2.22
2022-12-02T13:35:22.468Z,1.99
2022-12-02T13:37:50.514Z,2.08
2022-12-02T13:40:19.583Z,2.01
2022-12-02T13:42:49.484Z,2.11
2022-12-02T13:45:17.112Z,2.19
2022-12-02T13:47:44.618Z,2.14
2022-12-02T13:50:12.194Z,1.99
2022-12-02T13:52:39.687Z,2.02
2022-12-02T13:55:07.730Z,2.20
2022-12-02T13:57:35.352Z,2.04
2022-12-02T14:00:05.006Z,2.08
2022-12-02T14:02:32.533Z,2.28
2022-12-02T14:05:05.751Z,2.35
2022-12-02T14:07:35.640Z,2.32
2022-12-02T14:10:03.277Z,2.45
2022-12-02T14:12:30.811Z,2.21
2022-12-02T14:14:58.331Z,2.20
2022-12-02T14:17:27.221Z,2.25
2022-12-02T14:19:54.794Z,2.25
2022-12-02T14:22:22.336Z,2.17
2022-12-02T14:24:49.871Z,2.09
2022-12-02T14:27:17.452Z,1.70
2022-12-02T14:29:44.969Z,1.82
2022-12-02T14:32:12.556Z,1.94
2022-12-02T14:34:41.503Z,2.04
2022-12-02T14:37:14.651Z,1.91
2022-12-02T14:39:42.767Z,1.87
2022-12-02T14:42:10.452Z,1.92
2022-12-02T14:44:38.030Z,1.80
2022-12-02T14:47:05.704Z,1.77
2022-12-02T14:49:41.405Z,1.96
2022-12-02T14:52:10.955Z,2.06
2022-12-02T14:54:38.535Z,2.22
2022-12-02T14:57:06.532Z,2.09
2022-12-02T14:59:34.111Z,1.91
2022-12-02T15:02:01.884Z,2.11
2022-12-02T15:04:29.882Z,2.15
2022-12-02T15:06:57.418Z,1.97
2022-12-02T15:09:26.660Z,2.02
2022-12-02T15:11:54.207Z,1.97
2022-12-02T15:14:21.884Z,2.12
2022-12-02T15:16:49.566Z,2.08
2022-12-02T15:19:17.510Z,1.95
2022-12-02T15:21:45.031Z,1.82
2022-12-02T15:24:12.572Z,1.99
2022-12-02T15:26:41.434Z,1.93
2022-12-02T15:29:09.085Z,1.91
2022-12-02T15:31:36.680Z,1.85
2022-12-02T15:34:04.253Z,1.89
2022-12-02T15:36:31.811Z,1.75
2022-12-02T15:38:59.365Z,1.93
2022-12-02T15:41:26.883Z,1.95
2022-12-02T15:43:55.756Z,2.03
2022-12-02T15:46:24.104Z,1.90
2022-12-02T15:48:51.901Z,1.79
2022-12-02T15:51:19.996Z,1.70
2022-12-02T15:53:47.564Z,1.64
2022-12-02T15:56:15.799Z,1.71
2022-12-02T15:58:43.573Z,1.66
2022-12-02T16:01:12.512Z,1.67
2022-12-02T16:03:40.093Z,1.70
2022-12-02T16:06:08.230Z,1.72
2022-12-02T16:08:35.830Z,1.59
2022-12-02T16:11:03.425Z,1.84
2022-12-02T16:13:30.958Z,1.78
2022-12-02T16:15:58.580Z,1.52
2022-12-02T16:18:28.528Z,1.66
2022-12-02T16:20:56.112Z,1.73
2022-12-02T16:23:24.010Z,1.45
2022-12-02T16:25:51.621Z,1.80
2022-12-02T16:28:19.283Z,1.55
2022-12-02T16:30:47.077Z,1.45
2022-12-02T16:33:14.656Z,1.74
2022-12-02T16:35:43.529Z,1.53
2022-12-02T16:38:11.119Z,1.60
2022-12-02T16:40:38.672Z,1.88
2022-12-02T16:43:06.180Z,1.67
2022-12-02T16:45:33.740Z,1.81
2022-12-02T16:48:01.298Z,1.61
2022-12-02T16:50:28.823Z,1.80
2022-12-02T16:52:57.693Z,1.81
2022-12-02T16:55:25.211Z,1.69
2022-12-02T16:57:52.830Z,1.56
2022-12-02T17:00:21.473Z,1.50
2022-12-02T17:02:49.089Z,1.34
2022-12-02T17:05:16.949Z,1.27
2022-12-02T17:07:44.641Z,1.28
2022-12-02T17:10:14.292Z,1.42
2022-12-02T17:12:41.876Z,1.58
2022-12-02T17:15:12.625Z,1.57
2022-12-02T17:17:47.591Z,1.50
2022-12-02T17:20:15.403Z,1.53
2022-12-02T17:22:43.600Z,1.62
2022-12-02T17:25:12.669Z,1.67
2022-12-02T17:27:42.120Z,1.63
2022-12-02T17:30:12.017Z,1.43
2022-12-02T17:32:39.816Z,1.38
2022-12-02T17:35:08.048Z,1.28
2022-12-02T17:37:35.639Z,1.54
2022-12-02T17:40:03.199Z,1.78
2022-12-02T17:42:31.246Z,1.70
2022-12-02T17:45:00.348Z,1.66
2022-12-02T17:47:27.863Z,1.77
2022-12-02T17:49:55.382Z,1.71
2022-12-02T17:52:22.948Z,1.78
2022-12-02T17:54:51.220Z,1.86
2022-12-02T17:57:19.188Z,1.70
2022-12-02T17:59:46.731Z,1.67
2022-12-02T18:02:15.765Z,1.82
2022-12-02T18:04:44.439Z,1.92
2022-12-02T18:07:12.702Z,1.78
2022-12-02T18:09:41.090Z,1.75
2022-12-02T18:12:10.084Z,1.60
2022-12-02T18:14:37.882Z,1.58
2022-12-02T18:17:05.504Z,1.61
2022-12-02T18:19:34.541Z,1.57
2022-12-02T18:22:02.483Z,1.79
2022-12-02T18:24:30.017Z,1.83
2022-12-02T18:26:57.590Z,1.69
2022-12-02T18:29:25.130Z,1.53
2022-12-02T18:31:52.664Z,1.68
2022-12-02T18:34:20.196Z,2.12
2022-12-02T18:36:49.042Z,1.93
2022-12-02T18:39:16.567Z,2.13
2022-12-02T18:41:44.069Z,1.92
2022-12-02T18:44:11.607Z,2.10
2022-12-02T18:46:39.216Z,1.85
2022-12-02T18:49:06.773Z,1.81
2022-12-02T18:51:34.300Z,1.76
2022-12-02T18:54:03.181Z,1.84
2022-12-02T18:56:30.734Z,1.88
2022-12-02T18:58:58.257Z,1.95
2022-12-02T19:01:30.734Z,2.08
2022-12-02T19:04:01.318Z,1.88
2022-12-02T19:06:28.883Z,1.82
2022-12-02T19:08:56.424Z,1.89
2022-12-02T19:11:25.344Z,1.85
2022-12-02T19:13:53.067Z,2.35
2022-12-02T19:16:20.815Z,2.05
2022-12-02T19:18:48.526Z,1.96
2022-12-02T19:21:21.422Z,1.83
2022-12-02T19:23:51.967Z,2.14
2022-12-02T19:26:19.920Z,2.11
2022-12-02T19:28:48.836Z,2.36
2022-12-02T19:31:16.610Z,2.49
2022-12-02T19:33:44.238Z,2.35
2022-12-02T19:36:11.776Z,2.35
2022-12-02T19:38:39.319Z,2.46
2022-12-02T19:41:06.887Z,2.91
2022-12-02T19:43:36.065Z,2.94
2022-12-02T19:46:05.737Z,2.99
2022-12-02T19:48:33.457Z,2.85
2022-12-02T19:51:01.080Z,2.90
2022-12-02T19:53:28.658Z,2.35
2022-12-02T19:55:56.218Z,2.64
2022-12-02T19:58:23.844Z,2.47
2022-12-02T20:00:51.388Z,2.41
2022-12-02T20:03:20.494Z,2.58
2022-12-02T20:05:48.129Z,2.54
2022-12-02T20:08:15.765Z,2.64
2022-12-02T20:10:43.423Z,2.41
2022-12-02T20:13:10.984Z,2.55
2022-12-02T20:15:39.822Z,2.68
2022-12-02T20:18:07.406Z,2.52
2022-12-02T20:20:36.698Z,2.91
2022-12-02T20:23:04.948Z,2.85
2022-12-02T20:25:32.568Z,3.39
2022-12-02T20:28:00.154Z,2.62
2022-12-02T20:30:27.688Z,2.64
2022-12-02T20:32:55.247Z,3.40
2022-12-02T20:35:22.792Z,3.65
2022-12-02T20:37:51.682Z,3.21
2022-12-02T20:40:19.467Z,3.23
2022-12-02T20:42:47.030Z,3.59
2022-12-02T20:45:14.648Z,4.25
2022-12-02T20:47:42.190Z,4.29
2022-12-02T20:50:10.482Z,3.77
2022-12-02T20:52:38.034Z,3.73
2022-12-02T20:55:08.036Z,4.00
2022-12-02T20:57:35.674Z,4.09
2022-12-02T21:00:03.247Z,3.59
2022-12-02T21:02:30.934Z,3.80
2022-12-02T21:04:58.540Z,4.01
2022-12-02T21:07:26.145Z,4.09
2022-12-02T21:09:53.882Z,4.00
2022-12-02T21:12:22.757Z,3.78
2022-12-02T21:14:50.427Z,4.11
2022-12-02T21:17:18.083Z,4.06
2022-12-02T21:19:45.674Z,4.07
2022-12-02T21:22:13.215Z,4.06
2022-12-02T21:24:40.723Z,4.38
2022-12-02T21:27:08.268Z,3.74
2022-12-02T21:29:37.210Z,3.69
2022-12-02T21:32:05.156Z,4.00
2022-12-02T21:34:32.803Z,4.16
2022-12-02T21:37:00.346Z,4.29
2022-12-02T21:39:28.143Z,4.37
2022-12-02T21:41:55.732Z,4.41
2022-12-02T21:44:23.637Z,4.47
2022-12-02T21:46:52.573Z,4.46
2022-12-02T21:49:20.168Z,4.06
2022-12-02T21:51:49.518Z,3.88
2022-12-02T21:54:17.131Z,4.09
2022-12-02T21:56:44.765Z,3.78
2022-12-02T21:59:12.294Z,3.92
2022-12-02T22:01:40.995Z,4.33
2022-12-02T22:04:13.438Z,4.11
2022-12-02T22:06:41.294Z,3.86
2022-12-02T22:09:09.164Z,4.16
2022-12-02T22:11:37.290Z,4.34
2022-12-02T22:14:05.523Z,4.35
2022-12-02T22:16:33.277Z,4.51
2022-12-02T22:19:01.015Z,4.56
2022-12-02T22:21:30.372Z,4.36
2022-12-02T22:23:57.889Z,4.15
2022-12-02T22:26:25.434Z,3.81
2022-12-02T22:28:52.944Z,3.79
2022-12-02T22:31:20.540Z,3.79
2022-12-02T22:33:48.051Z,3.69
2022-12-02T22:36:15.599Z,3.38
2022-12-02T22:38:44.500Z,3.33
2022-12-02T22:41:12.079Z,3.27
2022-12-02T22:43:39.628Z,3.14
2022-12-02T22:46:07.249Z,3.09
2022-12-02T22:48:41.318Z,3.42
2022-12-02T22:51:09.034Z,3.63
2022-12-02T22:53:36.732Z,2.83
2022-12-02T22:56:05.930Z,2.97
2022-12-02T22:58:33.517Z,2.92
2022-12-02T23:01:01.316Z,2.95
2022-12-02T23:03:28.888Z,2.72
2022-12-02T23:05:56.476Z,2.61
2022-12-02T23:08:24.111Z,2.86
2022-12-02T23:10:51.655Z,2.34
2022-12-02T23:13:20.552Z,2.45
2022-12-02T23:15:48.172Z,2.37
2022-12-02T23:18:15.702Z,2.36
2022-12-02T23:20:43.762Z,2.51
2022-12-02T23:23:11.410Z,2.62
2022-12-02T23:25:38.967Z,2.84
2022-12-02T23:28:06.591Z,2.88
2022-12-02T23:30:35.510Z,2.78
2022-12-02T23:33:03.111Z,2.90
2022-12-02T23:35:30.651Z,3.34
2022-12-02T23:37:58.979Z,3.36
2022-12-02T23:40:27.552Z,3.31
2022-12-02T23:42:55.141Z,3.34
2022-12-02T23:45:22.683Z,3.27
2022-12-02T23:47:51.581Z,3.39
2022-12-02T23:50:19.235Z,3.15
2022-12-02T23:52:46.746Z,3.34
2022-12-02T23:55:14.295Z,3.56
2022-12-02T23:57:41.868Z,3.33
